FXMM/MSU METAR and TAF weather

Enter ICAO airport designator
Station Type Date Time Source
FXMM METAR 2021/09/19 13:00 UTC NOAA

FXMM 191300Z 27012KT 9999 FEW035CB BKN035 21/06 Q1020 TEMPO -TSRA


Station Type Date Time Source
FXMM Decoded METAR 2021/09/19 13:00 UTC NOAA

Maseru / Moshoeshoe, Lesotho (FXMM) 29-27S 027-33E
Sep 19, 2021 - 09:00 AM EDT / 2021.09.19 1300 UTC
Wind: from the W (270 degrees) at 14 MPH (12 KT):0
Visibility: greater than 7 mile(s):0
Sky conditions: mostly cloudy
Weather: Cumulonimbus clouds observed
Temperature: 69 F (21 C)
Dew Point: 42 F (6 C)
Relative Humidity: 37%
Pressure (altimeter): 30.12 in. Hg (1020 hPa)
ob: FXMM 191300Z 27012KT 9999 FEW035CB BKN035 21/06 Q1020 TEMPO -TSRA
cycle: 13

Station Type Date Time Source
FXMM TAF 2021/08/15 09:42 UTC NOAA

TAF TAF FXMM 150600Z 1509/1521 VRB02KT 9999 FEW035 SCT035
BECMG 1510/1512 34010KT

Example: see airport list